Terminal Aerodrome Forecast
Issued by NWS

Home | Current Version | Previous Version | Text Only | Print | Product List | Glossary On
Versions: 1 2 3 4 5 6 7 8 9 10 11 12 13 14 15 16 17
000
FTUS46 KMFR 251133
TAFOTH
TAF
KOTH 251133Z 2512/2612 15005KT P6SM -SHRA FEW010 BKN025 OVC050
     FM251800 29009KT P6SM VCSH SCT050 BKN250
     FM260400 18005KT P6SM FEW050 SCT150=

USA.gov is the U.S. government's official web portal to all federal, state and local government web resources and services.